< Typhoon 197316 1973 Season Typhoon 197318 >
Typhoon 197317 (PATSY)
General InformationTrack Information on Google Maps || Disaster Info.ResourceGoogle EarthGE AnimationAtom FeedGeoJSON
Detalied Best Track (Time Zone = UTC)
Year Month Day Hour Lat. Long. Pressure (hPa) Wind (kt) Class Image Chart
1973 10 5 00 14.0 144.0 1008 0 2 -- Chart
1973 10 5 06 13.6 143.5 1006 0 2 -- Chart
1973 10 5 12 13.3 143.0 1006 0 2 -- Chart
1973 10 5 18 13.2 142.5 1004 0 2 -- Chart
1973 10 6 00 13.0 142.0 1000 0 9 -- Chart
1973 10 6 06 13.0 141.8 998 0 9 -- Chart
1973 10 6 12 13.0 141.5 994 0 9 -- Chart
1973 10 6 18 13.0 141.3 992 0 9 -- Chart
1973 10 7 00 13.0 141.1 990 0 9 -- Chart
1973 10 7 06 13.2 140.8 985 0 9 -- Chart
1973 10 7 12 13.7 140.1 985 0 9 -- Chart
1973 10 7 18 13.9 139.6 980 0 9 -- Chart
1973 10 8 00 14.1 138.8 975 0 9 -- Chart
1973 10 8 06 14.3 138.2 975 0 9 -- Chart
1973 10 8 12 14.5 137.7 970 0 9 -- Chart
1973 10 8 18 14.8 136.8 965 0 9 -- Chart
1973 10 9 00 14.9 135.7 955 0 9 -- Chart
1973 10 9 06 15.2 134.6 940 0 9 -- Chart
1973 10 9 12 15.5 133.6 925 0 9 -- Chart
1973 10 9 18 15.7 132.7 910 0 9 -- Chart
1973 10 10 00 15.8 131.7 895 0 9 -- Chart
1973 10 10 06 16.1 130.5 910 0 9 -- Chart
1973 10 10 12 16.5 129.4 920 0 9 -- Chart
1973 10 10 18 16.7 128.1 945 0 9 -- Chart
1973 10 11 00 17.0 126.6 960 0 9 -- Chart
1973 10 11 06 17.3 125.5 970 0 9 -- Chart
1973 10 11 12 17.5 124.5 980 0 9 -- Chart
1973 10 11 18 18.0 123.6 990 0 9 -- Chart
1973 10 12 00 18.8 122.4 992 0 9 -- Chart
1973 10 12 06 19.0 121.0 996 0 9 -- Chart
1973 10 12 12 18.0 119.0 998 0 2 -- Chart
1973 10 12 18 17.3 116.8 998 0 2 -- Chart
1973 10 13 00 17.0 114.5 1000 0 2 -- Chart
1973 10 13 06 17.0 113.0 1000 0 2 -- Chart
1973 10 13 12 17.4 112.0 1000 0 2 -- Chart
1973 10 13 18 17.5 111.1 1000 0 2 -- Chart
1973 10 14 00 17.5 110.5 1000 0 2 -- Chart
1973 10 14 06 17.0 109.7 1002 0 2 -- Chart
1973 10 14 12 17.0 109.2 1002 0 2 -- Chart
1973 10 14 18 17.0 108.7 1002 0 2 -- Chart
1973 10 15 00 16.6 108.4 1008 0 2 -- Chart
Japan Meteorological Agency Best Track Data | Correction Date : 1989-06-01
< Typhoon 197316 1973 Season Typhoon 197318 >

Help